Time;durP1;ratioP1;P1;durP2;ratioP2;P2;SDS_P1;SDS_P2;PMS_P1;PMS_P2;Temp;Humidity;BMP_temperature;BMP_pressure;BME280_temperature;BME280_humidity;BME280_pressure;Samples;Min_cycle;Max_cycle;Signal;HPM_P1;HPM_P2
2022/08/30 00:01:01;;;;;;;10.90;4.80;;;19.60;99.90;;;;;;5009172;28;20391;-83
2022/08/30 00:02:01;;;;;;;7.90;5.10;;;19.50;99.90;;;;;;5024903;28;20386;-82
2022/08/30 00:04:29;;;;;;;10.15;4.95;;;19.40;99.90;;;;;;5028687;28;20389;-82
2022/08/30 00:06:56;;;;;;;11.35;5.07;;;19.20;99.90;;;;;;5028873;28;20398;-84
2022/08/30 00:09:24;;;;;;;12.45;5.30;;;19.30;99.90;;;;;;5028719;28;20401;-82
2022/08/30 00:11:51;;;;;;;8.43;4.50;;;19.40;99.90;;;;;;5028688;28;20398;-83
2022/08/30 00:14:19;;;;;;;9.68;4.60;;;19.10;99.90;;;;;;5028487;28;20402;-83
2022/08/30 00:16:46;;;;;;;8.47;4.43;;;19.10;99.90;;;;;;5027475;28;20424;-82
2022/08/30 00:19:14;;;;;;;7.75;4.47;;;18.80;99.90;;;;;;5028344;28;20386;-82
2022/08/30 00:21:41;;;;;;;9.13;4.20;;;18.80;99.90;;;;;;5028444;28;20402;-83
2022/08/30 00:24:09;;;;;;;8.90;4.55;;;19.10;99.90;;;;;;5028274;28;20389;-82
2022/08/30 00:26:36;;;;;;;8.57;4.70;;;19.10;99.90;;;;;;5028505;28;20807;-83
2022/08/30 00:29:04;;;;;;;7.00;3.85;;;19.10;99.90;;;;;;5027107;28;20385;-82
2022/08/30 00:31:32;;;;;;;8.57;4.33;;;19.20;99.90;;;;;;5028431;28;20385;-82
2022/08/30 00:33:59;;;;;;;8.25;4.38;;;19.30;99.90;;;;;;5027075;28;20390;-83
2022/08/30 00:36:27;;;;;;;8.02;4.40;;;19.30;99.90;;;;;;5028292;28;20480;-82
2022/08/30 00:38:55;;;;;;;8.93;3.75;;;19.30;99.90;;;;;;5028549;28;20855;-83
2022/08/30 00:41:22;;;;;;;7.72;4.45;;;19.30;99.90;;;;;;5028292;28;20381;-82
2022/08/30 00:43:51;;;;;;;6.65;3.47;;;19.20;99.90;;;;;;5026973;28;20385;-83
2022/08/30 00:46:18;;;;;;;6.95;3.95;;;19.20;99.90;;;;;;5028120;28;20400;-82
2022/08/30 00:48:48;;;;;;;8.00;3.67;;;19.00;99.90;;;;;;5028078;28;20432;-81
2022/08/30 00:51:16;;;;;;;10.10;4.35;;;18.80;99.90;;;;;;5028378;28;20397;-82
2022/08/30 00:53:49;;;;;;;8.55;3.92;;;18.60;99.90;;;;;;5029248;28;20390;-82
2022/08/30 00:56:18;;;;;;;7.50;3.72;;;18.70;99.90;;;;;;5016911;28;20477;-82
2022/08/30 00:58:52;;;;;;;6.20;3.60;;;18.70;99.90;;;;;;5010612;28;20399;-82
2022/08/30 01:01:20;;;;;;;7.25;3.90;;;18.70;99.90;;;;;;5010562;28;20880;-82
2022/08/30 01:03:48;;;;;;;5.95;3.58;;;18.60;99.90;;;;;;5010777;28;20391;-82
2022/08/30 01:06:17;;;;;;;6.68;3.47;;;18.70;99.90;;;;;;5011648;28;20423;-82
2022/08/30 01:08:45;;;;;;;9.45;3.40;;;18.80;99.90;;;;;;5011788;28;20957;-81
2022/08/30 01:11:17;;;;;;;7.50;4.10;;;18.60;99.90;;;;;;5011573;28;20395;-82
2022/08/30 01:13:46;;;;;;;7.10;3.90;;;18.60;99.90;;;;;;5010555;28;20861;-83
2022/08/30 01:16:14;;;;;;;6.43;3.75;;;18.80;99.90;;;;;;5011276;28;20803;-83
2022/08/30 01:18:42;;;;;;;7.72;4.10;;;18.70;99.90;;;;;;5011524;28;20453;-82
2022/08/30 01:21:35;;;;;;;7.43;3.93;;;18.30;99.90;;;;;;5009837;28;20834;-82
2022/08/30 01:24:05;;;;;;;7.78;4.13;;;18.50;99.90;;;;;;5016095;28;20403;-82
2022/08/30 01:26:35;;;;;;;7.07;3.75;;;18.40;99.90;;;;;;5011495;28;20842;-82
2022/08/30 01:29:09;;;;;;;9.13;3.80;;;18.40;99.90;;;;;;5010276;28;20403;-82
2022/08/30 01:31:36;;;;;;;6.32;3.90;;;18.20;99.90;;;;;;5011356;28;20399;-82
2022/08/30 01:34:06;;;;;;;5.72;4.25;;;18.30;99.90;;;;;;5011088;28;20877;-82
2022/08/30 01:36:38;;;;;;;7.53;4.10;;;18.20;99.90;;;;;;5011095;28;20426;-82
2022/08/30 01:39:15;;;;;;;7.47;3.78;;;18.10;99.90;;;;;;5011104;28;20419;-82
2022/08/30 01:41:44;;;;;;;5.40;3.50;;;18.10;99.90;;;;;;5011230;28;20482;-81
2022/08/30 01:44:12;;;;;;;7.55;4.00;;;18.00;99.90;;;;;;5010969;28;20395;-82
2022/08/30 01:46:44;;;;;;;6.63;3.53;;;17.90;99.90;;;;;;5010999;28;20749;-81
2022/08/30 01:49:14;;;;;;;7.15;4.07;;;18.00;99.90;;;;;;5010979;28;20889;-82
2022/08/30 01:51:43;;;;;;;7.22;3.60;;;17.90;99.90;;;;;;5096072;28;20391;-81
2022/08/30 01:54:11;;;;;;;6.78;3.70;;;18.00;99.90;;;;;;5009780;28;20406;-82
2022/08/30 01:56:38;;;;;;;6.78;3.83;;;18.00;99.90;;;;;;5010997;28;20414;-82
2022/08/30 01:59:06;;;;;;;8.32;4.00;;;18.00;99.90;;;;;;5010838;28;20876;-82
2022/08/30 02:01:35;;;;;;;6.63;3.87;;;17.80;99.90;;;;;;5010817;28;20410;-81
2022/08/30 02:04:05;;;;;;;5.63;3.80;;;17.80;99.90;;;;;;5009176;28;20384;-82
2022/08/30 02:06:32;;;;;;;9.02;4.40;;;17.80;99.90;;;;;;5010779;28;20391;-82
2022/08/30 02:09:01;;;;;;;8.95;4.13;;;17.90;99.90;;;;;;5010754;28;20464;-81
2022/08/30 02:11:29;;;;;;;7.40;3.90;;;17.90;99.90;;;;;;5010564;28;20399;-82
2022/08/30 02:13:57;;;;;;;7.13;4.10;;;17.90;99.90;;;;;;5042068;28;20391;-81
2022/08/30 02:16:25;;;;;;;6.70;4.07;;;17.70;99.90;;;;;;5010518;28;20438;-82
2022/08/30 02:18:55;;;;;;;6.95;3.80;;;17.80;99.90;;;;;;5010107;28;20399;-82
2022/08/30 02:21:26;;;;;;;12.15;4.65;;;17.90;99.90;;;;;;5031857;27;20398;-81
2022/08/30 02:23:54;;;;;;;7.45;3.83;;;17.90;99.90;;;;;;5030244;28;20863;-82
2022/08/30 02:26:23;;;;;;;8.98;4.00;;;18.00;99.90;;;;;;5028930;28;20402;-83
2022/08/30 02:28:52;;;;;;;5.80;3.83;;;18.00;99.90;;;;;;5030203;28;20786;-81
2022/08/30 02:31:21;;;;;;;6.93;4.10;;;18.00;99.90;;;;;;5024590;28;20454;-82
2022/08/30 02:33:52;;;;;;;6.53;3.97;;;18.00;99.90;;;;;;5028897;28;20397;-82
2022/08/30 02:36:20;;;;;;;5.75;3.85;;;17.80;99.90;;;;;;5030049;28;20482;-80
2022/08/30 02:38:49;;;;;;;5.40;3.47;;;17.80;99.90;;;;;;5029939;28;20408;-81
2022/08/30 02:41:18;;;;;;;5.03;3.63;;;17.80;99.90;;;;;;5029919;28;20386;-82
2022/08/30 02:43:46;;;;;;;8.05;3.97;;;17.90;99.90;;;;;;5028580;28;20390;-82
2022/08/30 02:46:14;;;;;;;8.43;4.18;;;17.90;99.90;;;;;;5029953;28;20393;-82
2022/08/30 02:48:42;;;;;;;6.80;3.55;;;18.00;99.90;;;;;;5030029;28;20397;-81
2022/08/30 02:51:12;;;;;;;6.05;3.70;;;17.90;99.90;;;;;;5029786;28;20427;-82
2022/08/30 02:53:42;;;;;;;6.88;3.65;;;17.90;99.90;;;;;;5024992;28;20748;-82
2022/08/30 02:56:11;;;;;;;5.78;3.53;;;17.90;99.90;;;;;;5019667;28;20405;-82
2022/08/30 02:58:41;;;;;;;5.93;3.20;;;17.70;99.90;;;;;;5029768;28;20859;-81
2022/08/30 03:01:12;;;;;;;6.87;3.80;;;17.70;99.90;;;;;;5024794;28;20387;-80
2022/08/30 03:03:41;;;;;;;5.40;3.25;;;17.80;99.90;;;;;;5011403;28;20402;-82
2022/08/30 03:06:09;;;;;;;6.35;3.03;;;17.80;99.90;;;;;;5029508;28;20476;-80
2022/08/30 03:08:37;;;;;;;4.75;2.90;;;17.70;99.90;;;;;;5029615;28;20933;-82
2022/08/30 03:11:05;;;;;;;3.38;2.50;;;17.70;99.90;;;;;;5024980;28;20399;-82
2022/08/30 03:13:33;;;;;;;4.30;3.17;;;17.80;99.90;;;;;;5056939;28;20458;-82
2022/08/30 03:16:00;;;;;;;7.40;3.35;;;17.80;99.90;;;;;;5010878;28;20431;-81
2022/08/30 03:18:28;;;;;;;6.10;3.05;;;17.70;99.90;;;;;;5029428;28;20472;-82
2022/08/30 03:20:56;;;;;;;3.92;2.50;;;17.70;99.90;;;;;;5028076;28;20401;-81
2022/08/30 03:23:23;;;;;;;4.10;2.47;;;17.70;99.90;;;;;;5013502;28;20387;-81
2022/08/30 03:25:52;;;;;;;4.28;2.05;;;17.60;99.90;;;;;;5009570;28;20423;-82
2022/08/30 03:28:19;;;;;;;3.58;2.40;;;17.80;99.90;;;;;;5009509;28;20446;-82
2022/08/30 03:30:47;;;;;;;3.63;2.20;;;17.70;99.90;;;;;;5009604;28;20394;-81
2022/08/30 03:33:15;;;;;;;3.08;2.30;;;17.60;99.90;;;;;;5009449;28;20480;-82
2022/08/30 03:35:46;;;;;;;4.88;2.53;;;17.50;99.90;;;;;;5009242;28;20456;-81
2022/08/30 03:38:14;;;;;;;3.90;2.10;;;17.40;99.90;;;;;;5008271;28;20440;-81
2022/08/30 03:40:42;;;;;;;4.47;2.10;;;17.50;99.90;;;;;;5009412;28;20391;-82
2022/08/30 03:43:10;;;;;;;4.03;2.30;;;17.60;99.90;;;;;;5008125;28;20977;-82
2022/08/30 03:45:39;;;;;;;4.30;2.45;;;17.60;99.90;;;;;;5009320;28;20395;-81
2022/08/30 03:48:06;;;;;;;3.70;2.28;;;17.60;99.90;;;;;;5009212;28;20395;-81
2022/08/30 03:50:35;;;;;;;3.28;2.33;;;17.50;99.90;;;;;;5011078;28;20899;-82
2022/08/30 03:53:03;;;;;;;3.85;2.25;;;17.40;99.90;;;;;;5027608;28;20442;-82
2022/08/30 03:55:30;;;;;;;4.40;2.40;;;17.50;99.90;;;;;;5025881;28;20472;-81
2022/08/30 03:57:58;;;;;;;4.15;2.30;;;17.40;99.90;;;;;;5026392;28;20884;-81
2022/08/30 04:00:27;;;;;;;5.47;2.60;;;17.50;99.90;;;;;;5027478;28;20385;-82
2022/08/30 04:02:54;;;;;;;4.37;2.20;;;17.40;99.90;;;;;;5023415;28;20401;-82
2022/08/30 04:05:22;;;;;;;3.60;2.20;;;17.30;99.90;;;;;;5023849;28;20390;-81
2022/08/30 04:07:50;;;;;;;3.83;2.35;;;17.30;99.90;;;;;;5043367;28;20497;-79
2022/08/30 04:10:20;;;;;;;5.00;2.42;;;17.40;99.90;;;;;;5041892;27;20390;-80
2022/08/30 04:12:49;;;;;;;3.85;2.60;;;17.50;99.90;;;;;;5008968;28;20383;-82
2022/08/30 04:15:18;;;;;;;4.90;2.42;;;17.50;99.90;;;;;;5009550;28;20454;-84
2022/08/30 04:17:47;;;;;;;4.72;2.63;;;17.60;99.90;;;;;;5024082;28;20398;-84
2022/08/30 04:20:15;;;;;;;3.63;2.53;;;17.50;99.90;;;;;;5013253;28;20459;-84
2022/08/30 04:22:43;;;;;;;5.40;2.83;;;17.60;99.90;;;;;;5009786;28;20534;-84
2022/08/30 04:25:10;;;;;;;4.38;2.47;;;17.60;99.90;;;;;;5020490;28;20413;-84
2022/08/30 04:27:44;;;;;;;4.90;1.98;;;17.60;99.90;;;;;;5021512;28;20608;-83
2022/08/30 04:30:13;;;;;;;3.47;2.05;;;17.60;99.90;;;;;;5014880;28;20403;-85
2022/08/30 04:32:42;;;;;;;4.50;3.00;;;17.70;99.90;;;;;;5024164;28;20456;-84
2022/08/30 04:35:10;;;;;;;6.90;3.10;;;17.70;99.90;;;;;;5022505;28;20402;-82
2022/08/30 04:37:38;;;;;;;6.53;3.10;;;17.70;99.90;;;;;;5023429;28;20413;-83
2022/08/30 04:40:06;;;;;;;5.78;3.22;;;17.70;99.90;;;;;;5012098;28;20391;-83
2022/08/30 04:42:35;;;;;;;3.73;2.53;;;17.70;99.90;;;;;;5030663;28;20499;-83
2022/08/30 04:45:06;;;;;;;5.77;3.40;;;17.70;99.90;;;;;;5022859;28;20389;-83
2022/08/30 04:47:34;;;;;;;3.75;2.67;;;17.70;99.90;;;;;;5023349;28;20693;-83
2022/08/30 04:50:02;;;;;;;5.47;3.10;;;17.70;99.90;;;;;;5011027;28;20425;-84
2022/08/30 04:52:30;;;;;;;4.82;3.30;;;17.70;99.90;;;;;;5012205;28;20387;-82
2022/08/30 04:54:58;;;;;;;7.68;3.60;;;17.70;99.90;;;;;;5013668;28;20409;-84
2022/08/30 04:57:26;;;;;;;5.60;3.72;;;17.70;99.90;;;;;;5022026;28;20409;-84
2022/08/30 04:59:54;;;;;;;5.97;3.45;;;17.70;99.90;;;;;;5015690;28;20476;-83
2022/08/30 05:02:22;;;;;;;10.70;7.43;;;17.70;99.90;;;;;;5021816;28;20867;-81
2022/08/30 05:07:36;;;;;;;9.90;6.70;;;17.60;99.90;;;;;;5018716;28;20411;-83
2022/08/30 05:10:04;;;;;;;8.45;6.90;;;17.60;99.90;;;;;;5022924;28;20902;-83
2022/08/30 05:12:37;;;;;;;8.65;6.45;;;17.60;99.90;;;;;;5022718;28;20447;-84
2022/08/30 05:15:05;;;;;;;9.27;5.72;;;17.60;99.90;;;;;;5021715;28;20407;-84
2022/08/30 05:17:33;;;;;;;6.35;5.07;;;17.60;99.90;;;;;;5020395;28;20488;-84
2022/08/30 05:20:01;;;;;;;8.43;5.60;;;17.70;99.90;;;;;;5022549;28;20741;-82
2022/08/30 05:22:29;;;;;;;7.55;5.07;;;17.70;99.90;;;;;;5013711;28;20448;-84
2022/08/30 05:24:58;;;;;;;8.40;4.43;;;17.70;99.90;;;;;;5022193;28;20403;-82
2022/08/30 05:27:25;;;;;;;8.52;4.80;;;17.70;99.90;;;;;;5011461;28;20395;-83
2022/08/30 05:29:54;;;;;;;7.65;5.13;;;17.70;99.90;;;;;;5015953;28;20400;-85
2022/08/30 05:32:22;;;;;;;10.43;5.05;;;17.70;99.90;;;;;;5022287;28;20456;-84
2022/08/30 05:34:49;;;;;;;7.20;5.03;;;17.40;99.90;;;;;;5010426;28;20436;-85
2022/08/30 05:37:17;;;;;;;7.40;4.60;;;17.40;99.90;;;;;;5010906;28;20904;-84
2022/08/30 05:39:45;;;;;;;7.47;4.80;;;17.50;99.90;;;;;;5017948;28;20469;-84
2022/08/30 05:42:18;;;;;;;5.88;3.97;;;17.60;99.90;;;;;;5018947;28;20452;-84
2022/08/30 05:44:51;;;;;;;7.82;4.38;;;17.60;99.90;;;;;;5014732;28;20399;-83
2022/08/30 05:47:20;;;;;;;9.13;4.60;;;17.70;99.90;;;;;;5019351;28;20876;-84
2022/08/30 05:49:48;;;;;;;6.82;4.07;;;17.70;99.90;;;;;;5019062;28;20402;-83
2022/08/30 05:52:17;;;;;;;6.63;4.68;;;17.60;99.90;;;;;;5021302;28;20429;-84
2022/08/30 05:54:45;;;;;;;6.00;4.43;;;17.60;99.90;;;;;;5022141;28;20409;-84
2022/08/30 05:57:13;;;;;;;6.93;3.80;;;17.60;99.90;;;;;;5017878;28;20405;-84
2022/08/30 05:59:41;;;;;;;6.47;4.10;;;17.60;99.90;;;;;;5019288;28;20399;-83
2022/08/30 06:02:09;;;;;;;5.97;4.13;;;17.60;99.90;;;;;;5016533;28;20865;-83
2022/08/30 06:04:37;;;;;;;9.98;4.85;;;17.70;99.90;;;;;;5015764;28;20383;-80
2022/08/30 06:07:04;;;;;;;6.47;4.18;;;17.70;99.90;;;;;;5010926;28;20907;-84
2022/08/30 06:09:32;;;;;;;6.20;3.50;;;17.70;99.90;;;;;;5010325;28;20494;-83
2022/08/30 06:12:00;;;;;;;5.07;3.50;;;17.70;99.90;;;;;;5018508;28;20841;-84
2022/08/30 06:14:27;;;;;;;6.78;4.18;;;17.50;99.90;;;;;;5019741;28;20397;-84
2022/08/30 06:16:56;;;;;;;5.82;3.78;;;17.40;99.90;;;;;;5019742;28;20417;-84
2022/08/30 06:19:23;;;;;;;5.10;3.38;;;17.40;99.90;;;;;;5014479;28;20496;-84
2022/08/30 06:21:51;;;;;;;6.20;4.25;;;17.60;99.90;;;;;;5019738;28;20401;-84
2022/08/30 06:24:19;;;;;;;7.63;4.80;;;17.70;99.90;;;;;;5019654;28;20489;-83
2022/08/30 06:27:02;;;;;;;8.68;4.20;;;17.70;99.90;;;;;;5019705;28;20591;-84
2022/08/30 06:29:29;;;;;;;5.60;4.10;;;17.70;99.90;;;;;;5003011;28;20406;-84
2022/08/30 06:31:57;;;;;;;6.43;3.83;;;17.70;99.90;;;;;;5019565;28;20407;-83
2022/08/30 06:34:26;;;;;;;5.50;4.20;;;17.80;99.90;;;;;;5019097;28;20410;-84
2022/08/30 06:36:54;;;;;;;6.38;3.70;;;17.80;99.90;;;;;;5018036;28;20907;-83
2022/08/30 06:39:21;;;;;;;6.72;3.45;;;17.80;99.90;;;;;;5019781;28;20409;-84
2022/08/30 06:41:49;;;;;;;5.75;3.75;;;17.80;99.90;;;;;;5022874;28;20496;-84
2022/08/30 06:44:27;;;;;;;7.43;4.03;;;17.80;99.90;;;;;;5022630;28;20409;-83
2022/08/30 06:46:56;;;;;;;6.15;3.75;;;17.80;99.90;;;;;;5027736;28;20409;-84
2022/08/30 06:49:24;;;;;;;13.18;4.47;;;17.80;99.90;;;;;;5014888;28;20884;-82
2022/08/30 06:51:52;;;;;;;5.67;4.00;;;17.80;99.90;;;;;;5018354;28;20440;-82
2022/08/30 06:54:20;;;;;;;6.55;3.80;;;17.60;99.90;;;;;;5019151;28;20420;-81
2022/08/30 06:56:48;;;;;;;5.97;3.50;;;17.40;99.90;;;;;;5050091;28;20470;-82
2022/08/30 06:59:25;;;;;;;5.50;3.50;;;17.40;99.90;;;;;;5017555;28;20404;-82
2022/08/30 07:01:54;;;;;;;5.13;3.55;;;17.50;99.90;;;;;;5018107;28;20395;-83
2022/08/30 07:04:23;;;;;;;7.05;4.00;;;17.60;99.90;;;;;;5049692;27;20399;-82
2022/08/30 07:06:50;;;;;;;7.30;4.03;;;17.70;99.90;;;;;;5019346;28;20411;-82
2022/08/30 07:09:18;;;;;;;7.38;3.40;;;17.70;99.90;;;;;;5019984;28;20493;-82
2022/08/30 07:11:50;;;;;;;5.30;3.28;;;17.60;99.90;;;;;;5020488;28;20503;-81
2022/08/30 07:14:19;;;;;;;4.00;3.13;;;17.50;99.90;;;;;;5019336;28;20531;-82
2022/08/30 07:16:46;;;;;;;6.38;3.88;;;17.30;99.90;;;;;;5018293;28;20904;-82
2022/08/30 07:19:18;;;;;;;6.13;3.13;;;17.40;99.90;;;;;;5019360;28;20407;-82
2022/08/30 07:21:48;;;;;;;7.03;3.93;;;17.50;99.90;;;;;;5018065;28;20412;-83
2022/08/30 07:24:16;;;;;;;5.65;3.90;;;17.60;99.90;;;;;;5018631;28;20476;-82
2022/08/30 07:26:48;;;;;;;7.40;3.65;;;17.70;99.90;;;;;;5017821;28;20398;-82
2022/08/30 07:29:16;;;;;;;4.97;3.88;;;17.60;99.90;;;;;;5016297;28;20418;-84
2022/08/30 07:31:44;;;;;;;6.38;3.63;;;17.70;99.90;;;;;;5014462;28;20424;-82
2022/08/30 07:34:11;;;;;;;6.03;3.47;;;17.70;99.90;;;;;;5009502;28;20790;-83
2022/08/30 07:36:39;;;;;;;9.10;4.00;;;17.80;99.90;;;;;;5009040;28;20410;-83
2022/08/30 07:39:08;;;;;;;6.10;4.03;;;17.80;99.90;;;;;;5009054;28;20410;-83
2022/08/30 07:41:37;;;;;;;6.23;4.10;;;17.80;99.90;;;;;;5014809;28;20403;-83
2022/08/30 07:44:06;;;;;;;6.27;3.80;;;17.80;99.90;;;;;;5020896;28;20424;-83
2022/08/30 07:46:36;;;;;;;8.35;3.50;;;17.80;99.90;;;;;;5017434;28;20914;-82
2022/08/30 07:49:05;;;;;;;6.13;3.97;;;17.60;99.90;;;;;;5018089;28;20923;-84
2022/08/30 07:51:39;;;;;;;7.65;3.58;;;17.60;99.90;;;;;;5024746;28;20393;-83
2022/08/30 07:54:07;;;;;;;6.20;3.60;;;17.60;99.90;;;;;;5016566;28;20407;-83
2022/08/30 07:56:35;;;;;;;7.25;3.78;;;17.60;99.90;;;;;;5022522;28;20476;-83
2022/08/30 07:59:03;;;;;;;5.80;3.72;;;17.70;99.90;;;;;;5018904;28;20429;-82
2022/08/30 08:01:31;;;;;;;7.75;4.00;;;17.70;99.90;;;;;;5018127;28;20402;-83
2022/08/30 08:03:58;;;;;;;9.48;4.68;;;17.70;99.90;;;;;;5017633;28;20404;-82
2022/08/30 08:06:26;;;;;;;8.67;5.10;;;17.70;99.90;;;;;;5015539;28;20457;-83
2022/08/30 08:09:01;;;;;;;8.77;4.90;;;17.70;99.90;;;;;;5020149;28;20412;-82
2022/08/30 08:11:29;;;;;;;8.43;4.90;;;17.80;99.90;;;;;;5019597;28;21268;-83
2022/08/30 08:14:01;;;;;;;9.05;4.85;;;17.80;99.90;;;;;;5008291;28;20391;-83
2022/08/30 08:16:31;;;;;;;7.47;4.60;;;17.80;99.90;;;;;;5008663;28;20414;-82
2022/08/30 08:18:59;;;;;;;17.17;5.43;;;17.80;99.90;;;;;;5016997;28;20490;-81
2022/08/30 08:21:27;;;;;;;10.07;4.63;;;17.80;99.90;;;;;;5014547;28;20757;-81
2022/08/30 08:23:57;;;;;;;8.25;4.82;;;17.80;99.90;;;;;;5015822;28;21427;-83
2022/08/30 08:26:24;;;;;;;6.60;4.90;;;17.90;99.90;;;;;;5018574;28;20993;-83
2022/08/30 08:28:52;;;;;;;7.15;4.68;;;17.80;99.90;;;;;;5019769;28;20405;-82
2022/08/30 08:31:22;;;;;;;6.95;4.57;;;17.90;99.90;;;;;;5017016;28;20461;-83
2022/08/30 08:34:01;;;;;;;6.83;3.87;;;17.90;99.90;;;;;;5014506;28;20828;-82
2022/08/30 08:36:30;;;;;;;5.43;3.75;;;17.90;99.90;;;;;;5018504;28;20891;-82
2022/08/30 08:38:59;;;;;;;6.17;3.60;;;17.90;99.90;;;;;;5012171;28;20399;-82
2022/08/30 08:41:47;;;;;;;5.15;3.50;;;17.90;99.90;;;;;;5016473;28;20416;-82
2022/08/30 08:44:33;;;;;;;7.22;3.95;;;17.80;99.90;;;;;;5017563;28;20439;-82
2022/08/30 08:47:28;;;;;;;8.03;4.40;;;17.80;99.90;;;;;;5017771;28;20408;-82
2022/08/30 08:50:00;;;;;;;6.50;4.03;;;17.90;99.90;;;;;;5019581;28;20409;-82
2022/08/30 08:55:57;;;;;;;5.47;3.50;;;17.80;99.90;;;;;;5019172;28;20979;-82
2022/08/30 08:58:41;;;;;;;5.20;3.53;;;17.80;99.90;;;;;;5017387;28;20439;-81
2022/08/30 09:01:11;;;;;;;4.93;3.40;;;17.80;99.90;;;;;;5015554;28;20489;-83
2022/08/30 09:03:39;;;;;;;6.07;3.60;;;17.90;99.90;;;;;;5018208;28;20448;-84
2022/08/30 09:06:18;;;;;;;4.68;3.45;;;17.90;99.90;;;;;;5019463;28;20416;-82
2022/08/30 09:08:46;;;;;;;4.05;2.95;;;18.00;99.90;;;;;;5019524;28;20408;-83
2022/08/30 09:11:22;;;;;;;5.55;3.60;;;17.90;99.90;;;;;;5019263;28;20439;-83
2022/08/30 09:13:53;;;;;;;5.68;3.20;;;18.00;99.90;;;;;;5019363;28;20403;-83
2022/08/30 09:16:50;;;;;;;4.38;3.20;;;18.00;99.90;;;;;;5052224;27;20425;-81
2022/08/30 09:19:54;;;;;;;5.35;3.40;;;17.90;99.90;;;;;;5025882;28;20486;-83
2022/08/30 09:22:32;;;;;;;7.00;3.90;;;17.90;99.90;;;;;;5036599;28;20401;-82
2022/08/30 09:24:59;;;;;;;4.22;3.42;;;18.00;99.90;;;;;;5024700;28;20455;-82
2022/08/30 09:27:35;;;;;;;7.13;4.13;;;18.00;99.90;;;;;;5017262;28;20414;-83
2022/08/30 09:30:08;;;;;;;7.28;3.55;;;18.10;99.90;;;;;;5020278;28;20883;-82
2022/08/30 09:32:57;;;;;;;4.60;3.45;;;18.00;99.90;;;;;;5014080;28;20403;-82
2022/08/30 09:35:35;;;;;;;4.90;2.35;;;18.00;99.90;;;;;;5024531;28;20389;-83
2022/08/30 09:38:19;;;;;;;5.10;2.80;;;18.00;99.90;;;;;;5023044;28;20441;-84
2022/08/30 09:40:55;;;;;;;4.78;2.63;;;18.10;99.90;;;;;;5021224;28;20413;-84
2022/08/30 09:43:28;;;;;;;5.72;3.30;;;18.10;99.90;;;;;;5022475;28;20401;-83
2022/08/30 09:45:59;;;;;;;5.07;3.20;;;18.10;99.90;;;;;;5014168;28;20490;-83
2022/08/30 09:48:36;;;;;;;4.80;3.10;;;18.10;99.90;;;;;;5025799;28;20407;-83
2022/08/30 09:51:33;;;;;;;5.38;3.05;;;18.10;99.90;;;;;;5010595;28;20893;-82
2022/08/30 09:54:25;;;;;;;4.15;2.78;;;18.20;99.90;;;;;;5028576;28;20916;-83
2022/08/30 09:57:15;;;;;;;4.40;2.60;;;18.20;99.90;;;;;;5018321;28;20467;-84
2022/08/30 09:59:48;;;;;;;4.75;2.78;;;18.20;99.90;;;;;;5017749;28;21031;-84
2022/08/30 10:02:27;;;;;;;6.47;3.10;;;18.20;99.90;;;;;;5018839;28;20401;-83
2022/08/30 10:05:06;;;;;;;4.05;3.00;;;18.30;99.90;;;;;;5022031;28;20416;-82
2022/08/30 10:08:00;;;;;;;3.80;3.08;;;18.30;99.90;;;;;;5021947;28;20407;-83
2022/08/30 10:10:39;;;;;;;3.80;3.00;;;18.30;99.90;;;;;;5016807;28;20895;-82
2022/08/30 10:13:30;;;;;;;4.97;3.55;;;18.40;99.90;;;;;;5014432;27;20428;-84
2022/08/30 10:16:28;;;;;;;4.38;3.50;;;18.40;99.90;;;;;;5014837;28;20407;-83
2022/08/30 10:19:11;;;;;;;4.57;3.42;;;18.50;99.90;;;;;;5025548;28;20409;-82
2022/08/30 10:22:00;;;;;;;4.10;3.00;;;18.50;99.90;;;;;;5024028;28;20402;-84
2022/08/30 10:24:41;;;;;;;4.32;2.60;;;18.60;99.90;;;;;;5019918;28;20390;-83
2022/08/30 10:27:25;;;;;;;3.88;2.65;;;18.50;99.90;;;;;;5025531;28;20409;-83
2022/08/30 10:30:07;;;;;;;4.43;2.80;;;18.50;99.90;;;;;;5019169;28;20406;-84
2022/08/30 10:32:51;;;;;;;5.78;2.63;;;18.50;99.90;;;;;;5016314;28;20892;-83
2022/08/30 10:35:33;;;;;;;3.57;2.60;;;18.50;99.90;;;;;;5015964;28;20403;-84
2022/08/30 10:38:11;;;;;;;5.07;2.65;;;18.50;99.90;;;;;;5017801;28;20415;-83
2022/08/30 10:43:57;;;;;;;5.75;2.90;;;18.70;99.90;;;;;;5015111;28;20395;-83
2022/08/30 10:46:47;;;;;;;4.82;3.55;;;18.70;99.90;;;;;;5025721;28;20468;-82
2022/08/30 10:49:20;;;;;;;3.83;3.00;;;18.70;99.90;;;;;;5018378;27;20460;-83
2022/08/30 10:51:57;;;;;;;3.70;3.05;;;18.80;99.90;;;;;;5020707;28;20405;-82
2022/08/30 10:54:41;;;;;;;4.53;2.80;;;18.80;99.90;;;;;;5015049;28;20502;-80
2022/08/30 10:57:09;;;;;;;5.65;3.17;;;18.80;99.90;;;;;;5018779;28;20431;-82
2022/08/30 10:59:45;;;;;;;4.18;2.75;;;18.90;99.90;;;;;;5019771;28;20395;-83
2022/08/30 11:02:55;;;;;;;4.63;2.67;;;19.10;99.90;;;;;;5027802;28;20868;-83
2022/08/30 11:05:59;;;;;;;4.80;2.83;;;19.10;99.90;;;;;;5009974;28;20445;-83
2022/08/30 11:08:35;;;;;;;4.50;3.10;;;19.20;99.90;;;;;;5014052;28;20479;-83
2022/08/30 11:11:28;;;;;;;4.63;2.97;;;19.40;99.90;;;;;;5021595;28;20401;-84
2022/08/30 11:14:01;;;;;;;4.75;3.05;;;19.60;99.90;;;;;;5014651;28;20893;-84
2022/08/30 11:16:45;;;;;;;3.67;2.58;;;19.70;99.90;;;;;;5023271;28;20895;-84
2022/08/30 11:19:28;;;;;;;4.32;2.58;;;19.60;99.90;;;;;;5019549;28;20455;-83
2022/08/30 11:22:20;;;;;;;4.00;2.67;;;19.70;99.90;;;;;;5051850;28;20445;-81
2022/08/30 11:25:10;;;;;;;3.58;2.45;;;19.80;99.90;;;;;;5020877;28;20484;-82
2022/08/30 11:27:47;;;;;;;3.45;2.47;;;19.70;99.90;;;;;;5014191;28;20899;-84
2022/08/30 11:30:23;;;;;;;3.55;2.38;;;19.80;99.90;;;;;;5025556;28;20883;-84
2022/08/30 11:33:11;;;;;;;4.20;2.40;;;19.90;99.90;;;;;;5019116;28;20745;-84
2022/08/30 11:35:51;;;;;;;4.00;2.60;;;20.00;99.90;;;;;;5018663;28;20414;-83
2022/08/30 11:38:24;;;;;;;4.55;2.40;;;19.90;99.90;;;;;;5017719;28;20468;-84
2022/08/30 11:40:56;;;;;;;4.47;2.58;;;19.80;99.90;;;;;;5018458;28;20403;-83
2022/08/30 11:43:33;;;;;;;4.40;2.87;;;19.60;99.90;;;;;;5017601;28;20464;-83
2022/08/30 11:46:36;;;;;;;4.47;2.50;;;19.60;99.90;;;;;;5018755;28;20400;-83
2022/08/30 11:49:11;;;;;;;10.87;2.90;;;19.60;99.90;;;;;;5020902;28;20436;-83
2022/08/30 11:52:07;;;;;;;4.82;2.25;;;19.40;99.90;;;;;;5018231;28;20395;-84
2022/08/30 11:55:02;;;;;;;4.65;2.40;;;19.40;99.90;;;;;;5051926;28;20404;-84
2022/08/30 11:58:06;;;;;;;3.00;2.13;;;19.40;99.90;;;;;;5034644;28;21022;-83
2022/08/30 12:00:44;;;;;;;5.30;2.38;;;19.30;99.90;;;;;;5016654;28;20404;-83
2022/08/30 12:03:20;;;;;;;3.23;2.53;;;19.30;99.90;;;;;;5016230;28;20438;-82
2022/08/30 12:05:53;;;;;;;3.35;1.98;;;19.30;99.90;;;;;;5019391;28;20962;-84
2022/08/30 12:08:32;;;;;;;3.22;2.00;;;19.30;99.90;;;;;;5020285;28;20462;-83
2022/08/30 12:11:11;;;;;;;5.80;1.90;;;19.30;99.90;;;;;;5019339;28;20772;-82
2022/08/30 12:13:42;;;;;;;2.38;1.75;;;19.30;99.90;;;;;;5020541;28;20494;-83
2022/08/30 12:16:12;;;;;;;2.78;1.50;;;19.30;99.90;;;;;;5014376;28;20487;-81
2022/08/30 12:18:46;;;;;;;3.50;1.50;;;19.30;99.90;;;;;;5018978;28;20504;-82
2022/08/30 12:21:17;;;;;;;3.13;1.58;;;19.30;99.90;;;;;;5023623;28;20412;-84
2022/08/30 12:24:09;;;;;;;3.50;1.50;;;19.30;99.90;;;;;;5008527;28;20884;-83
2022/08/30 12:26:43;;;;;;;1.77;1.40;;;19.30;99.90;;;;;;5008715;28;20398;-82
2022/08/30 12:29:13;;;;;;;1.80;1.40;;;19.30;99.90;;;;;;5017735;28;20444;-83
2022/08/30 12:31:55;;;;;;;1.25;1.15;;;19.20;99.90;;;;;;5020477;28;20395;-83
2022/08/30 12:34:40;;;;;;;2.13;1.15;;;19.30;99.90;;;;;;5017235;28;20408;-83
2022/08/30 12:37:38;;;;;;;1.52;1.35;;;19.30;99.90;;;;;;5019599;28;20471;-82
2022/08/30 12:40:18;;;;;;;1.42;1.20;;;19.30;99.90;;;;;;5021142;28;20871;-82
2022/08/30 12:42:56;;;;;;;1.92;1.42;;;19.40;99.90;;;;;;5016251;28;20996;-83
2022/08/30 12:45:30;;;;;;;1.65;1.40;;;19.40;99.90;;;;;;5020169;28;20406;-84
2022/08/30 12:48:00;;;;;;;1.80;1.20;;;19.40;99.90;;;;;;5019911;28;20478;-83
2022/08/30 12:50:36;;;;;;;2.60;1.40;;;19.40;99.90;;;;;;5029791;27;20791;-83
2022/08/30 12:53:11;;;;;;;2.30;1.52;;;19.30;99.90;;;;;;5021519;28;20489;-82
2022/08/30 12:55:58;;;;;;;5.35;2.25;;;19.30;99.90;;;;;;5021982;28;20494;-81
2022/08/30 12:58:39;;;;;;;4.17;2.40;;;19.20;99.90;;;;;;5026749;28;20407;-82
2022/08/30 13:01:35;;;;;;;4.38;1.80;;;19.10;99.90;;;;;;5022848;28;20451;-82
2022/08/30 13:04:26;;;;;;;2.75;1.80;;;19.10;99.90;;;;;;5026235;27;20405;-83
2022/08/30 13:07:02;;;;;;;3.03;2.03;;;19.00;99.90;;;;;;5032689;27;20472;-81
2022/08/30 13:09:35;;;;;;;3.22;1.85;;;19.10;99.90;;;;;;5020481;28;20406;-82
2022/08/30 13:12:24;;;;;;;3.92;1.90;;;19.00;99.90;;;;;;5013477;28;20387;-82
2022/08/30 13:15:07;;;;;;;3.47;1.50;;;19.10;99.90;;;;;;5037165;28;20422;-81
2022/08/30 13:17:35;;;;;;;2.87;1.60;;;19.00;99.90;;;;;;5026393;28;20772;-83
2022/08/30 13:20:14;;;;;;;2.55;1.30;;;19.00;99.90;;;;;;5022707;28;20432;-82
2022/08/30 13:23:05;;;;;;;2.17;1.30;;;18.90;99.90;;;;;;5020993;28;20398;-81